Terminal Aerodrome Forecast
Issued by NWS North Platte, NE

Home | Current Version | Previous Version | Text Only | Print | Product List | Glossary On
Versions: 1 2 3 4 5 6 7 8 9 10 11 12 13 14
678
FTUS43 KLBF 230338 AAA
TAFVTN
TAF AMD
KVTN 230338Z 2304/2324 03012KT P6SM BKN010 OVC025
     FM230800 03011KT P6SM -SN OVC008
     FM231200 04014G20KT 3SM -SN OVC003
     FM231500 04017G24KT 1/2SM SN OVC003=

USA.gov is the U.S. government's official web portal to all federal, state and local government web resources and services.